Time;durP1;ratioP1;P1;durP2;ratioP2;P2;SDS_P1;SDS_P2;PMS_P1;PMS_P2;Temp;Humidity;BMP_temperature;BMP_pressure;BME280_temperature;BME280_humidity;BME280_pressure;Samples;Min_cycle;Max_cycle;Signal;HPM_P1;HPM_P2
2021/12/16 00:01:46;;;;;;;33.58;17.20;;;;;;;6.30;66.79;101298.44;4369656;32;32733;-88
2021/12/16 00:11:02;;;;;;;34.60;16.08;;;;;;;6.28;67.11;101306.31;4384799;32;34586;-86
2021/12/16 00:30:39;;;;;;;36.42;17.95;;;;;;;6.41;66.11;101307.19;4373537;32;33827;-86
2021/12/16 00:33:13;;;;;;;36.72;16.35;;;;;;;6.31;66.03;101308.06;4362686;32;32720;-86
2021/12/16 00:35:45;;;;;;;33.40;16.07;;;;;;;6.26;66.06;101315.94;4373211;32;33490;-86
2021/12/16 00:38:14;;;;;;;29.87;15.20;;;;;;;6.23;66.05;101310.72;4372601;32;33881;-88
2021/12/16 00:40:43;;;;;;;32.28;16.50;;;;;;;6.39;65.23;101315.03;4360322;32;33275;-88
2021/12/16 00:43:19;;;;;;;36.22;17.15;;;;;;;6.01;65.91;101322.97;4370819;32;33690;-87
2021/12/16 00:49:34;;;;;;;35.97;16.15;;;;;;;5.95;65.47;101320.34;4372365;32;32800;-88
2021/12/16 00:54:13;;;;;;;33.08;17.42;;;;;;;6.00;65.93;101320.34;4383644;32;32827;-90
2021/12/16 00:56:55;;;;;;;36.50;16.05;;;;;;;6.05;65.37;101322.09;4356965;32;33315;-89
2021/12/16 00:59:25;;;;;;;33.13;16.48;;;;;;;5.88;65.57;101316.81;4356307;32;33203;-89
2021/12/16 01:02:07;;;;;;;30.33;15.32;;;;;;;5.61;66.22;101319.44;4367371;32;34219;-89
2021/12/16 01:35:26;;;;;;;31.75;16.02;;;;;;;5.38;66.21;101309.81;4354289;32;32575;-90
2021/12/16 01:50:35;;;;;;;35.20;15.27;;;;;;;5.27;67.71;101295.84;4362341;32;32802;-90
2021/12/16 02:04:07;;;;;;;34.25;15.15;;;;;;;5.66;66.66;101288.88;4350107;33;34560;-89
2021/12/16 02:07:00;;;;;;;39.30;16.85;;;;;;;5.56;66.55;101281.91;4324780;33;33660;-89
2021/12/16 02:09:38;;;;;;;34.55;16.05;;;;;;;5.48;66.72;101286.25;4326551;33;33346;-89
2021/12/16 02:13:30;;;;;;;35.30;16.95;;;;;;;5.83;65.59;101276.63;4324962;33;32838;-89
2021/12/16 02:36:50;;;;;;;32.75;15.90;;;;;;;5.44;70.03;101266.16;4325051;33;33322;-89
2021/12/16 02:39:26;;;;;;;33.45;16.00;;;;;;;5.69;69.67;101267.87;4324511;33;32986;-92
2021/12/16 02:49:44;;;;;;;37.08;16.37;;;;;;;5.69;70.18;101267.03;4377360;32;32789;-91
2021/12/16 02:52:36;;;;;;;36.25;16.77;;;;;;;5.86;69.82;101253.03;4355003;32;32309;-92
2021/12/16 02:55:28;;;;;;;35.92;16.73;;;;;;;5.94;69.48;101252.22;4336854;33;33270;-93
2021/12/16 02:58:19;;;;;;;35.10;16.90;;;;;;;6.02;69.79;101250.41;4377370;32;32832;-94
2021/12/16 03:01:09;;;;;;;37.50;16.80;;;;;;;6.03;69.76;101252.16;4380157;32;33146;-92
2021/12/16 03:04:04;;;;;;;37.17;17.27;;;;;;;6.09;69.40;101253.03;4350333;32;33543;-90
2021/12/16 03:06:49;;;;;;;38.70;16.60;;;;;;;6.11;69.37;101250.41;4355296;32;33091;-92
2021/12/16 03:19:02;;;;;;;36.47;17.83;;;;;;;5.60;70.31;101236.44;4397121;32;33260;-92
2021/12/16 03:21:58;;;;;;;34.85;17.70;;;;;;;6.10;69.11;101232.94;4357334;32;32449;-92
2021/12/16 03:34:25;;;;;;;35.55;17.40;;;;;;;6.37;68.70;101227.59;4377098;32;32778;-91
2021/12/16 03:40:08;;;;;;;34.35;17.55;;;;;;;6.37;68.66;101238.09;4398647;32;33131;-93
2021/12/16 03:43:12;;;;;;;34.78;15.57;;;;;;;6.28;68.58;101238.13;4394342;32;32588;-91
2021/12/16 03:49:17;;;;;;;37.78;16.87;;;;;;;6.63;67.62;101230.09;4391549;32;32774;-93
2021/12/16 03:52:09;;;;;;;39.10;17.48;;;;;;;6.29;68.60;101239.88;4382200;32;34059;-90
2021/12/16 03:54:49;;;;;;;33.65;16.17;;;;;;;6.41;68.42;101239.84;4380776;32;32874;-90
2021/12/16 03:57:24;;;;;;;38.22;16.02;;;;;;;6.36;68.31;101232.84;4393122;32;32432;-90
2021/12/16 03:59:52;;;;;;;41.15;17.60;;;;;;;6.49;68.08;101234.53;4391781;32;34325;-90
2021/12/16 04:02:46;;;;;;;39.95;18.42;;;;;;;6.55;67.99;101233.63;4385442;32;34192;-90
2021/12/16 04:05:35;;;;;;;42.42;18.65;;;;;;;6.30;69.00;101232.88;4399850;32;31932;-90
2021/12/16 04:08:04;;;;;;;39.45;17.98;;;;;;;6.41;68.82;101239.84;4372000;32;32783;-89
2021/12/16 04:10:44;;;;;;;32.97;15.95;;;;;;;6.44;68.67;101245.94;4386698;32;33344;-91
2021/12/16 04:13:16;;;;;;;40.12;19.55;;;;;;;6.31;68.73;101235.47;4365376;32;33744;-89
2021/12/16 04:15:45;;;;;;;40.50;18.67;;;;;;;6.12;69.50;101242.56;4365889;32;32102;-91
2021/12/16 04:18:40;;;;;;;39.85;17.00;;;;;;;6.14;69.54;101232.03;4376779;32;33780;-90
2021/12/16 04:21:44;;;;;;;40.58;18.25;;;;;;;6.02;70.14;101229.44;4376679;32;34819;-89
2021/12/16 04:24:37;;;;;;;39.75;17.85;;;;;;;6.18;69.57;101231.16;4366812;32;33852;-90
2021/12/16 04:27:07;;;;;;;43.67;17.83;;;;;;;6.26;69.27;101231.13;4377925;32;32292;-89
2021/12/16 04:29:46;;;;;;;32.97;16.52;;;;;;;6.05;69.96;101232.94;4380007;32;33772;-89
2021/12/16 04:32:18;;;;;;;42.60;18.10;;;;;;;6.33;68.86;101230.25;4378060;32;33891;-89
2021/12/16 04:34:47;;;;;;;40.72;18.70;;;;;;;6.44;68.22;101232.81;4377885;32;34142;-89
2021/12/16 04:37:30;;;;;;;37.03;16.35;;;;;;;6.40;68.17;101240.69;4391300;32;33216;-91
2021/12/16 04:40:00;;;;;;;43.90;17.92;;;;;;;6.20;68.40;101239.88;4392706;32;33003;-90
2021/12/16 04:42:30;;;;;;;37.45;16.77;;;;;;;6.19;68.38;101235.53;4395152;32;33730;-91
2021/12/16 04:45:22;;;;;;;;;;;;;;;6.26;68.19;101237.25;4367996;32;32737;-93
2021/12/16 04:48:17;;;;;;;36.88;16.12;;;;;;;6.45;67.73;101239.81;4392972;32;33672;-94
2021/12/16 04:50:59;;;;;;;37.55;16.70;;;;;;;6.23;68.46;101239.03;4364929;32;32497;-91
2021/12/16 04:53:50;;;;;;;38.30;16.87;;;;;;;6.28;68.45;101237.25;4381924;32;33493;-91
2021/12/16 04:56:42;;;;;;;31.58;16.02;;;;;;;6.46;68.02;101231.03;4397273;32;33908;-90
2021/12/16 04:59:24;;;;;;;36.60;16.77;;;;;;;6.57;67.14;101232.75;4399815;32;31987;-92
2021/12/16 05:02:10;;;;;;;39.95;17.37;;;;;;;6.59;66.92;101232.75;4363409;32;32927;-92
2021/12/16 05:05:03;;;;;;;35.75;16.55;;;;;;;6.45;67.22;101222.31;4407908;32;33506;-94
2021/12/16 05:07:54;;;;;;;41.53;17.25;;;;;;;6.59;66.81;101228.38;4375188;32;32609;-93
2021/12/16 05:10:48;;;;;;;34.95;15.23;;;;;;;6.20;68.07;101224.16;4340734;32;32411;-89
2021/12/16 05:13:19;;;;;;;39.42;17.52;;;;;;;6.52;67.21;101223.16;4372841;32;32785;-89
2021/12/16 05:15:47;;;;;;;37.97;17.20;;;;;;;6.63;65.97;101219.59;4367959;32;32448;-89
2021/12/16 05:18:23;;;;;;;34.03;14.93;;;;;;;6.49;66.28;101220.56;4357402;32;32082;-92
2021/12/16 05:20:53;;;;;;;35.42;15.90;;;;;;;6.46;66.25;101226.69;4388322;32;32237;-94
2021/12/16 05:31:17;;;;;;;37.30;16.95;;;;;;;6.26;66.35;101228.50;4363197;32;35677;-90
2021/12/16 05:34:11;;;;;;;35.10;16.42;;;;;;;6.26;66.42;101239.84;4384440;32;33177;-91
2021/12/16 05:37:07;;;;;;;40.55;17.75;;;;;;;6.07;67.73;101232.91;4373806;32;32668;-91
2021/12/16 05:39:59;;;;;;;36.80;16.98;;;;;;;6.22;67.47;101238.16;4364083;32;32844;-91
2021/12/16 05:42:56;;;;;;;44.45;19.92;;;;;;;6.23;67.55;101244.28;4377740;32;32870;-95
2021/12/16 05:45:28;;;;;;;46.25;22.42;;;;;;;6.39;67.06;101238.94;4353231;32;33185;-91
2021/12/16 05:47:59;;;;;;;49.75;21.40;;;;;;;6.25;67.65;101247.75;4364550;32;34084;-92
2021/12/16 05:50:29;;;;;;;43.80;21.37;;;;;;;6.30;67.47;101252.09;4353012;32;32852;-91
2021/12/16 05:53:21;;;;;;;42.80;20.48;;;;;;;6.50;66.73;101253.78;4344757;33;33197;-93
2021/12/16 05:56:24;;;;;;;40.55;17.67;;;;;;;6.29;67.18;101250.34;4326133;33;32553;-91
2021/12/16 05:59:20;;;;;;;37.47;16.75;;;;;;;5.95;68.29;101248.69;4374902;32;32598;-91
2021/12/16 06:01:49;;;;;;;40.58;18.35;;;;;;;6.01;68.12;101256.53;4378913;32;32979;-90
2021/12/16 06:04:38;;;;;;;38.83;17.20;;;;;;;6.06;68.41;101253.03;4365702;32;32634;-92
2021/12/16 06:07:33;;;;;;;36.30;18.67;;;;;;;6.12;68.13;101252.12;4330730;33;32222;-93
2021/12/16 06:13:29;;;;;;;39.10;16.48;;;;;;;5.80;68.81;101250.44;4358883;32;33272;-89
2021/12/16 06:28:09;;;;;;;42.58;16.33;;;;;;;6.45;68.94;101255.53;4374408;32;34534;-92
2021/12/16 06:30:56;;;;;;;44.67;19.27;;;;;;;6.83;67.71;101248.38;4363395;32;33725;-96
2021/12/16 06:33:49;;;;;;;42.90;17.80;;;;;;;6.28;69.42;101246.00;4325772;33;33788;-88
2021/12/16 06:36:19;;;;;;;37.53;17.27;;;;;;;6.44;69.28;101249.44;4323277;33;34172;-88
2021/12/16 06:38:48;;;;;;;42.20;19.42;;;;;;;6.54;69.09;101256.38;4332287;33;33830;-88
2021/12/16 06:41:17;;;;;;;44.28;19.50;;;;;;;6.71;68.79;101258.09;4326212;33;33387;-88
2021/12/16 06:43:52;;;;;;;45.40;19.40;;;;;;;6.52;69.49;101257.28;4345901;33;33456;-88
2021/12/16 06:46:22;;;;;;;39.70;19.10;;;;;;;6.78;68.73;101260.66;4335662;33;32884;-88
2021/12/16 06:48:56;;;;;;;47.17;20.30;;;;;;;6.96;68.17;101264.06;4333619;33;33698;-88
2021/12/16 06:51:36;;;;;;;39.90;18.80;;;;;;;7.03;67.81;101260.56;4347960;33;34068;-88
2021/12/16 06:54:14;;;;;;;42.25;18.87;;;;;;;6.60;69.09;101266.88;4336184;33;33101;-88
2021/12/16 06:57:01;;;;;;;45.20;19.30;;;;;;;6.71;69.01;101277.31;4334910;33;32371;-88
2021/12/16 06:59:34;;;;;;;44.15;19.10;;;;;;;6.80;68.99;101269.41;4347779;33;33520;-88
2021/12/16 07:04:37;;;;;;;46.37;20.00;;;;;;;6.72;69.10;101273.81;4335611;33;33172;-88
2021/12/16 07:07:07;;;;;;;39.25;18.10;;;;;;;6.49;69.71;101275.66;4333140;33;32865;-87
2021/12/16 07:10:01;;;;;;;40.42;17.65;;;;;;;6.78;68.74;101275.53;4333448;33;33685;-89
2021/12/16 07:12:36;;;;;;;45.67;19.02;;;;;;;6.68;68.77;101272.94;4339070;32;32927;-88
2021/12/16 07:15:10;;;;;;;43.00;19.42;;;;;;;6.67;69.26;101280.84;4336170;32;32512;-87
2021/12/16 07:17:40;;;;;;;40.08;19.27;;;;;;;6.99;68.12;101279.81;4335691;32;32479;-88
2021/12/16 07:20:12;;;;;;;39.80;18.75;;;;;;;6.74;69.10;101279.94;4323553;33;33388;-88
2021/12/16 07:22:40;;;;;;;;;;;;;;;6.67;69.46;101278.22;4337689;33;33645;-88
2021/12/16 07:25:08;;;;;;;39.58;18.37;;;;;;;7.23;67.72;101277.06;4345687;32;32758;-87
2021/12/16 07:27:36;;;;;;;40.00;19.00;;;;;;;6.94;68.90;101279.84;4332961;33;33354;-87
2021/12/16 07:30:07;;;;;;;38.40;20.17;;;;;;;7.09;68.44;101278.88;4346360;33;35070;-87
2021/12/16 07:32:35;;;;;;;37.10;20.30;;;;;;;7.17;67.93;101272.72;4351110;32;33927;-87
2021/12/16 07:35:06;;;;;;;43.17;20.12;;;;;;;6.64;70.12;101280.84;4349743;32;33796;-87
2021/12/16 07:37:34;;;;;;;42.10;19.25;;;;;;;6.85;69.61;101278.13;4349493;32;33156;-88
2021/12/16 07:40:08;;;;;;;43.00;18.87;;;;;;;6.91;69.45;101271.97;4362074;32;33051;-88
2021/12/16 07:42:48;;;;;;;45.42;20.37;;;;;;;7.03;69.09;101276.31;4349678;32;33727;-88
2021/12/16 07:45:17;;;;;;;44.63;20.15;;;;;;;6.56;70.55;101272.16;4361259;32;33792;-88
2021/12/16 07:47:45;;;;;;;41.88;18.67;;;;;;;6.75;70.35;101276.44;4362085;32;32635;-88
2021/12/16 07:50:14;;;;;;;42.97;20.77;;;;;;;6.88;69.73;101278.13;4362494;32;32782;-87
2021/12/16 07:52:42;;;;;;;47.83;19.10;;;;;;;6.56;70.93;101266.91;4362305;32;32515;-87
2021/12/16 07:55:12;;;;;;;38.40;18.55;;;;;;;6.77;70.29;101264.16;4347585;32;33344;-87
2021/12/16 07:57:40;;;;;;;44.92;20.35;;;;;;;6.65;70.91;101277.37;4349553;32;33853;-87
2021/12/16 08:00:16;;;;;;;39.20;19.80;;;;;;;6.73;70.54;101278.19;4346986;33;33393;-87
2021/12/16 08:02:44;;;;;;;42.70;19.10;;;;;;;6.25;72.42;101284.47;4360868;32;32769;-87
2021/12/16 08:05:12;;;;;;;43.05;18.12;;;;;;;6.86;70.06;101277.25;4349738;32;34149;-87
2021/12/16 08:07:40;;;;;;;42.62;20.05;;;;;;;6.89;70.10;101277.25;4348391;32;32608;-87
2021/12/16 08:10:14;;;;;;;37.70;18.90;;;;;;;7.13;69.17;101272.75;4349672;32;34099;-87
2021/12/16 08:12:41;;;;;;;38.47;17.02;;;;;;;7.05;69.64;101282.41;4349670;32;32261;-87
2021/12/16 08:15:10;;;;;;;40.85;17.60;;;;;;;7.05;69.64;101285.03;4349642;32;32465;-90
2021/12/16 08:17:37;;;;;;;37.67;17.85;;;;;;;7.23;68.89;101281.44;4361919;32;33560;-87
2021/12/16 08:20:07;;;;;;;39.33;18.17;;;;;;;7.38;68.34;101290.06;4361712;32;33215;-87
2021/12/16 08:22:34;;;;;;;42.62;18.55;;;;;;;7.47;68.10;101278.63;4349262;32;31574;-86
2021/12/16 08:25:04;;;;;;;43.63;18.75;;;;;;;7.39;68.52;101281.31;4347512;32;33961;-86
2021/12/16 08:27:33;;;;;;;42.20;19.33;;;;;;;7.16;69.46;101286.69;4346771;32;34182;-86
2021/12/16 08:30:01;;;;;;;43.55;18.58;;;;;;;7.04;70.21;101288.56;4349526;32;32921;-86
2021/12/16 08:32:28;;;;;;;37.15;18.48;;;;;;;7.31;69.33;101285.75;4350819;32;33201;-86
2021/12/16 08:34:56;;;;;;;36.60;17.27;;;;;;;7.12;69.73;101282.38;4363130;32;33212;-86
2021/12/16 08:37:24;;;;;;;42.90;19.05;;;;;;;7.05;70.08;101282.41;4363809;32;34432;-86
2021/12/16 08:39:52;;;;;;;32.38;16.55;;;;;;;6.84;71.23;101283.41;4349224;32;32852;-86
2021/12/16 08:42:20;;;;;;;40.28;19.08;;;;;;;7.15;70.01;101286.72;4362940;32;33922;-86
2021/12/16 08:44:49;;;;;;;44.55;19.42;;;;;;;7.45;68.58;101269.88;4350964;32;33548;-86
2021/12/16 08:47:18;;;;;;;44.42;19.92;;;;;;;7.60;68.34;101272.41;4363738;32;33483;-86
2021/12/16 08:49:47;;;;;;;38.85;19.23;;;;;;;7.74;67.95;101282.81;4363889;32;35167;-86
2021/12/16 08:52:19;;;;;;;38.58;18.35;;;;;;;7.61;68.78;101273.28;4376283;32;32665;-87
2021/12/16 08:54:48;;;;;;;40.40;19.27;;;;;;;7.34;69.60;101266.47;4366789;32;32521;-87
2021/12/16 08:57:16;;;;;;;43.25;19.67;;;;;;;7.87;68.30;101273.91;4363277;32;33315;-87
2021/12/16 08:59:44;;;;;;;40.45;18.05;;;;;;;7.52;69.63;101273.34;4363395;32;33680;-87
2021/12/16 09:02:12;;;;;;;46.60;19.55;;;;;;;7.86;68.33;101274.78;4363651;32;32553;-87
2021/12/16 09:04:40;;;;;;;40.97;19.20;;;;;;;7.96;67.89;101278.22;4351304;32;31917;-87
2021/12/16 09:07:09;;;;;;;35.80;16.62;;;;;;;8.00;68.10;101279.06;4362799;32;32894;-87
2021/12/16 09:09:39;;;;;;;43.28;18.60;;;;;;;7.69;69.11;101268.81;4375763;32;33959;-87
2021/12/16 09:12:14;;;;;;;38.72;18.00;;;;;;;7.67;69.56;101268.81;4363427;32;33125;-87
2021/12/16 09:14:43;;;;;;;36.55;17.08;;;;;;;7.88;68.98;101270.41;4351436;32;34357;-87
2021/12/16 09:17:14;;;;;;;41.05;18.33;;;;;;;7.94;68.87;101267.72;4350975;32;32980;-95
2021/12/16 09:19:54;;;;;;;;;;;;;;;7.99;68.63;101272.06;4350963;32;32858;-95
2021/12/16 09:22:46;;;;;;;41.08;18.30;;;;;;;7.94;68.79;101275.59;4367295;32;32622;-94
2021/12/16 09:25:28;;;;;;;39.55;17.62;;;;;;;7.84;69.07;101273.09;4350942;32;32750;-94
2021/12/16 09:28:26;;;;;;;42.55;18.92;;;;;;;8.07;68.46;101271.13;4360419;32;34486;-94
2021/12/16 09:31:10;;;;;;;42.60;19.37;;;;;;;7.70;69.68;101276.69;4349162;32;32790;-94
2021/12/16 09:34:04;;;;;;;37.40;17.95;;;;;;;7.95;68.96;101274.72;4349511;32;32334;-93
2021/12/16 09:36:46;;;;;;;41.37;18.85;;;;;;;7.93;68.59;101267.75;4361964;32;33202;-93
2021/12/16 09:39:38;;;;;;;42.53;17.40;;;;;;;8.16;67.89;101264.84;4357509;32;20099;-94
2021/12/16 09:42:17;;;;;;;41.50;19.48;;;;;;;7.88;68.98;101267.78;4341689;32;33736;-94
2021/12/16 09:45:00;;;;;;;36.10;18.12;;;;;;;7.88;68.98;101259.91;4356639;32;33363;-94
2021/12/16 09:47:54;;;;;;;36.83;17.42;;;;;;;8.36;67.19;101257.69;4354082;32;35265;-93
2021/12/16 09:50:36;;;;;;;37.22;17.40;;;;;;;8.31;67.41;101253.28;4385847;32;35140;-93
2021/12/16 09:53:20;;;;;;;39.40;17.55;;;;;;;8.15;67.63;101249.97;4369477;32;33114;-93
2021/12/16 09:56:11;;;;;;;37.65;17.87;;;;;;;8.27;67.57;101247.22;4398267;32;32615;-94
2021/12/16 09:58:51;;;;;;;41.03;19.45;;;;;;;8.56;66.64;101248.66;4394625;32;33054;-94
2021/12/16 10:01:47;;;;;;;32.95;16.40;;;;;;;8.58;66.35;101245.09;4355390;32;32853;-93
2021/12/16 10:04:41;;;;;;;36.83;16.85;;;;;;;8.71;66.06;101243.19;4357677;32;34403;-93
2021/12/16 10:07:24;;;;;;;44.63;17.52;;;;;;;8.57;66.60;101234.59;4371346;32;33184;-93
2021/12/16 10:10:24;;;;;;;41.15;18.55;;;;;;;8.28;68.16;101233.16;4370096;32;32526;-92
2021/12/16 10:13:07;;;;;;;35.75;17.80;;;;;;;8.62;66.73;101233.66;4372732;32;33578;-94
2021/12/16 10:18:43;;;;;;;39.13;18.50;;;;;;;8.93;65.40;101231.50;4388892;32;32326;-93
2021/12/16 10:21:35;;;;;;;39.45;17.75;;;;;;;8.85;65.95;101224.59;4352179;32;32789;-92
2021/12/16 10:24:25;;;;;;;34.90;18.00;;;;;;;9.01;65.69;101225.22;4374964;32;32944;-94
2021/12/16 10:27:18;;;;;;;;;;;;;;;9.17;65.38;101205.69;4340989;33;33493;-93
2021/12/16 10:30:02;;;;;;;38.58;16.70;;;;;;;9.28;64.20;101202.87;4341486;32;32129;-91
2021/12/16 10:32:41;;;;;;;37.83;18.15;;;;;;;9.57;63.50;101202.38;4364293;32;32639;-91
2021/12/16 10:35:30;;;;;;;40.22;18.08;;;;;;;9.20;64.85;101210.88;4363646;32;32841;-95
2021/12/16 10:38:12;;;;;;;34.22;17.45;;;;;;;9.41;63.46;101209.69;4362452;32;32765;-93
2021/12/16 10:40:56;;;;;;;33.90;16.60;;;;;;;9.57;62.51;101205.88;4369718;32;33377;-94
2021/12/16 10:43:51;;;;;;;36.17;16.02;;;;;;;9.11;64.61;101211.03;4378141;32;32043;-93
2021/12/16 10:46:34;;;;;;;31.55;16.58;;;;;;;9.42;63.05;101211.41;4344039;32;33029;-94
2021/12/16 10:49:31;;;;;;;30.83;15.10;;;;;;;8.92;65.03;101211.28;4348929;32;33102;-93
2021/12/16 10:52:19;;;;;;;31.50;16.42;;;;;;;8.90;65.09;101206.94;4366807;32;32909;-92
2021/12/16 10:55:03;;;;;;;29.50;15.83;;;;;;;8.79;65.18;101204.47;4383075;32;33012;-92
2021/12/16 10:57:50;;;;;;;32.85;16.73;;;;;;;8.83;65.04;101211.44;4404197;32;32726;-92
2021/12/16 11:00:34;;;;;;;28.92;14.48;;;;;;;9.03;64.43;101202.38;4364893;32;32680;-94
2021/12/16 11:03:42;;;;;;;31.77;16.65;;;;;;;9.17;64.07;101205.69;4383322;32;32741;-93
2021/12/16 11:06:37;;;;;;;32.45;15.85;;;;;;;8.74;65.33;101205.44;4333602;33;32423;-92
2021/12/16 11:09:37;;;;;;;28.50;15.18;;;;;;;8.75;65.46;101209.81;4368386;32;32569;-94
2021/12/16 11:12:36;;;;;;;32.03;15.15;;;;;;;8.85;65.25;101209.66;4364422;32;33013;-94
2021/12/16 11:15:31;;;;;;;32.35;16.37;;;;;;;8.71;65.73;101203.69;4357922;32;33628;-92
2021/12/16 11:18:28;;;;;;;31.90;16.15;;;;;;;8.71;66.08;101201.06;4347367;33;34488;-93
2021/12/16 11:21:09;;;;;;;30.33;14.90;;;;;;;8.71;66.40;101201.06;4378394;32;32784;-92
2021/12/16 11:24:21;;;;;;;31.98;16.08;;;;;;;8.87;65.60;101189.41;4346603;33;34428;-94
2021/12/16 11:27:20;;;;;;;31.00;14.40;;;;;;;9.09;65.04;101191.75;4371987;32;32555;-93
2021/12/16 11:30:27;;;;;;;33.13;16.37;;;;;;;9.13;64.89;101188.16;4350691;32;32745;-92
2021/12/16 11:33:14;;;;;;;31.48;14.95;;;;;;;9.02;65.21;101190.06;4389241;32;32725;-92
2021/12/16 11:36:07;;;;;;;31.05;15.55;;;;;;;9.14;64.95;101180.22;4362798;32;33830;-92
2021/12/16 11:39:09;;;;;;;27.60;16.07;;;;;;;9.16;65.04;101188.09;4363428;32;32511;-92
2021/12/16 11:42:03;;;;;;;30.15;14.85;;;;;;;9.15;64.74;101186.37;4392088;32;33701;-93
2021/12/16 11:44:57;;;;;;;28.80;14.50;;;;;;;9.30;64.47;101179.97;4378471;32;33741;-93
2021/12/16 11:47:46;;;;;;;31.00;15.23;;;;;;;9.19;65.03;101182.78;4325258;33;32984;-93
2021/12/16 11:50:41;;;;;;;26.35;13.32;;;;;;;9.33;64.41;101180.81;4364646;32;32127;-93
2021/12/16 11:53:34;;;;;;;27.85;15.27;;;;;;;9.41;64.08;101181.56;4404464;32;32925;-94
2021/12/16 11:56:17;;;;;;;27.40;15.20;;;;;;;9.26;64.85;101179.19;4354004;32;32847;-93
2021/12/16 11:59:09;;;;;;;27.20;13.95;;;;;;;9.19;65.08;101172.25;4366148;32;33933;-93
2021/12/16 12:01:49;;;;;;;32.35;14.90;;;;;;;9.37;64.50;101171.94;4347398;33;31948;-94
2021/12/16 12:04:40;;;;;;;25.47;13.27;;;;;;;9.11;65.09;101163.59;4381121;32;32247;-92
2021/12/16 12:07:22;;;;;;;27.83;13.77;;;;;;;9.38;64.28;101167.53;4377000;32;32891;-93
2021/12/16 12:10:04;;;;;;;28.35;14.55;;;;;;;9.43;64.10;101161.28;4372464;32;32941;-93
2021/12/16 12:13:02;;;;;;;26.12;14.20;;;;;;;9.37;64.63;101166.69;4342888;32;34990;-94
2021/12/16 12:15:50;;;;;;;;;;;;;;;9.52;63.95;101169.94;4368414;32;33565;-93
2021/12/16 12:18:53;;;;;;;24.95;12.55;;;;;;;9.34;64.28;101169.34;4382863;32;33929;-94
2021/12/16 12:21:44;;;;;;;26.77;13.90;;;;;;;9.37;64.63;101163.19;4388719;32;32782;-94
2021/12/16 12:24:39;;;;;;;25.00;13.77;;;;;;;9.14;65.22;101164.41;4337404;33;32353;-93
2021/12/16 12:27:30;;;;;;;23.17;13.23;;;;;;;9.25;64.76;101172.16;4375131;32;33102;-94
2021/12/16 12:30:10;;;;;;;25.15;13.80;;;;;;;9.25;64.54;101166.88;4402292;32;33823;-94
2021/12/16 12:33:04;;;;;;;31.23;14.02;;;;;;;9.24;64.82;101171.28;4353438;32;34360;-92
2021/12/16 12:35:43;;;;;;;25.40;13.75;;;;;;;9.09;64.98;101165.37;4358460;32;32846;-92
2021/12/16 12:38:38;;;;;;;27.37;14.47;;;;;;;9.14;65.16;101160.91;4349840;32;33647;-91
2021/12/16 12:41:18;;;;;;;25.25;13.18;;;;;;;9.22;64.99;101162.53;4375506;32;32816;-92
2021/12/16 12:44:09;;;;;;;26.62;15.07;;;;;;;9.16;65.05;101159.13;4389815;32;32937;-91
2021/12/16 12:46:52;;;;;;;27.80;12.32;;;;;;;8.79;66.80;101157.06;4360191;32;32808;-92
2021/12/16 12:49:45;;;;;;;24.37;14.00;;;;;;;8.86;66.57;101149.94;4352946;32;32893;-91
2021/12/16 12:52:26;;;;;;;27.60;14.45;;;;;;;9.40;64.55;101150.81;4346828;33;33829;-94
2021/12/16 12:55:23;;;;;;;23.02;13.25;;;;;;;9.18;65.41;101162.63;4367097;32;32577;-93
2021/12/16 12:58:06;;;;;;;28.17;14.55;;;;;;;9.38;64.54;101147.31;4401368;32;33065;-92
2021/12/16 13:01:04;;;;;;;25.08;13.27;;;;;;;9.20;65.36;101147.62;4381097;32;34503;-94
2021/12/16 13:03:46;;;;;;;27.58;13.48;;;;;;;9.49;63.73;101145.37;4375483;32;33171;-94
2021/12/16 13:06:29;;;;;;;25.75;12.93;;;;;;;9.48;63.83;101146.25;4401054;32;32879;-93
2021/12/16 13:09:22;;;;;;;24.12;13.18;;;;;;;8.82;66.40;101157.00;4404694;32;33945;-94
2021/12/16 13:12:37;;;;;;;27.27;12.85;;;;;;;9.17;64.93;101158.25;4358379;32;32175;-94
2021/12/16 13:15:47;;;;;;;30.52;14.23;;;;;;;9.07;65.58;101164.53;4359902;32;32747;-92
2021/12/16 13:28:05;;;;;;;22.17;12.48;;;;;;;8.81;66.02;101163.16;4384063;32;33138;-94
2021/12/16 13:31:04;;;;;;;28.30;12.82;;;;;;;8.78;66.20;101163.22;4370383;32;33069;-94
2021/12/16 13:33:55;;;;;;;27.58;14.20;;;;;;;8.88;66.03;101172.75;4362437;32;32884;-93
2021/12/16 13:36:49;;;;;;;;;;;;;;;8.99;65.62;101175.19;4361708;32;33960;-94
2021/12/16 13:39:31;;;;;;;23.60;12.20;;;;;;;8.85;65.90;101178.03;4367413;32;33915;-94
2021/12/16 13:42:23;;;;;;;25.58;12.90;;;;;;;8.77;66.31;101182.53;4332633;33;32829;-94
2021/12/16 13:45:25;;;;;;;25.88;12.48;;;;;;;8.58;66.95;101192.44;4394249;32;32423;-94
2021/12/16 13:48:43;;;;;;;24.95;13.25;;;;;;;9.07;65.46;101190.88;4369280;32;33119;-92
2021/12/16 14:02:03;;;;;;;18.45;10.45;;;;;;;9.05;64.86;101196.19;4382068;32;32454;-93
2021/12/16 14:07:58;;;;;;;29.80;14.65;;;;;;;8.49;67.13;101199.59;4374234;32;32709;-96
2021/12/16 14:23:18;;;;;;;20.17;11.48;;;;;;;9.28;64.53;101189.69;4385840;32;34020;-92
2021/12/16 14:47:08;;;;;;;20.23;11.50;;;;;;;9.19;64.76;101194.19;4394915;32;33958;-94
2021/12/16 14:50:00;;;;;;;19.52;11.25;;;;;;;9.23;64.79;101195.03;4391571;32;32861;-95
2021/12/16 14:52:42;;;;;;;18.60;9.95;;;;;;;9.33;64.61;101206.28;4349839;32;33730;-94
2021/12/16 14:55:33;;;;;;;17.08;9.60;;;;;;;9.30;64.66;101195.78;4400583;32;33463;-94
2021/12/16 14:58:13;;;;;;;20.52;11.20;;;;;;;8.82;66.06;101193.88;4379590;32;33319;-93
2021/12/16 15:01:09;;;;;;;18.02;11.18;;;;;;;8.75;66.93;101197.50;4358123;32;33172;-94
2021/12/16 15:03:52;;;;;;;19.35;11.00;;;;;;;8.97;65.98;101204.22;4383537;32;34041;-92
2021/12/16 15:06:50;;;;;;;19.42;11.38;;;;;;;8.88;66.33;101199.09;4353632;32;35205;-94
2021/12/16 15:09:43;;;;;;;23.80;12.37;;;;;;;9.15;65.40;101202.19;4386765;32;33895;-95
2021/12/16 15:12:40;;;;;;;21.70;12.10;;;;;;;9.40;64.44;101198.28;4361001;32;33124;-95
2021/12/16 15:15:48;;;;;;;20.12;12.60;;;;;;;9.15;65.35;101203.03;4387431;32;34637;-95
2021/12/16 15:37:30;;;;;;;16.62;10.32;;;;;;;9.45;64.52;101196.44;4319176;33;33856;-91
2021/12/16 15:43:13;;;;;;;17.75;9.90;;;;;;;9.56;64.09;101192.75;4381498;32;33219;-91
2021/12/16 15:46:18;;;;;;;19.15;10.50;;;;;;;9.20;65.20;101205.59;4379022;32;32676;-91
2021/12/16 15:48:57;;;;;;;20.33;11.32;;;;;;;9.05;65.73;101205.84;4337648;33;31864;-91
2021/12/16 15:51:51;;;;;;;17.25;10.38;;;;;;;9.55;63.86;101198.91;4334399;33;33120;-91
2021/12/16 15:54:36;;;;;;;17.83;10.70;;;;;;;8.97;65.80;101212.13;4355146;32;32665;-90
2021/12/16 15:57:14;;;;;;;18.10;10.93;;;;;;;9.38;64.43;101204.44;4366146;32;32881;-90
2021/12/16 15:59:50;;;;;;;19.35;10.10;;;;;;;9.29;64.68;101212.50;4365915;32;33259;-91
2021/12/16 16:02:32;;;;;;;19.05;11.88;;;;;;;9.29;64.75;101205.47;4367731;32;32937;-90
2021/12/16 16:05:02;;;;;;;19.67;10.55;;;;;;;9.25;64.76;101211.69;4369289;32;32535;-92
2021/12/16 16:07:45;;;;;;;19.12;10.23;;;;;;;9.41;64.04;101215.81;4366624;32;33462;-91
2021/12/16 16:10:31;;;;;;;20.67;11.43;;;;;;;9.23;64.46;101210.84;4376144;32;33061;-91
2021/12/16 16:13:23;;;;;;;24.75;14.00;;;;;;;9.39;63.93;101214.97;4351847;32;33877;-90
2021/12/16 16:16:10;;;;;;;26.23;14.00;;;;;;;8.94;65.50;101235.00;4358535;32;32858;-90
2021/12/16 16:18:41;;;;;;;36.43;15.27;;;;;;;9.22;64.53;101224.94;4368647;32;33217;-91
2021/12/16 16:21:21;;;;;;;26.17;13.32;;;;;;;9.31;64.26;101214.25;4370049;32;33732;-91
2021/12/16 16:23:53;;;;;;;28.70;14.27;;;;;;;9.24;64.52;101212.56;4375554;32;33180;-91
2021/12/16 16:26:25;;;;;;;24.90;13.15;;;;;;;8.65;66.53;101227.50;4365523;32;32594;-91
2021/12/16 16:29:00;;;;;;;27.35;14.10;;;;;;;8.70;66.20;101230.94;4385840;32;33180;-90
2021/12/16 16:31:31;;;;;;;24.55;12.75;;;;;;;8.88;65.48;101220.16;4363409;32;33807;-91
2021/12/16 16:34:00;;;;;;;22.70;12.50;;;;;;;8.75;66.13;101226.47;4373299;32;33327;-90
2021/12/16 16:36:32;;;;;;;20.08;12.15;;;;;;;8.85;65.76;101217.56;4369453;32;33354;-90